sensor_id;sensor_type;location;lat;lon;timestamp;temperature;humidity
11855;DHT22;5987;53.140;8.904;2023-06-26T00:01:21;22.30;99.90
11855;DHT22;5987;53.140;8.904;2023-06-26T00:04:24;22.30;99.90
11855;DHT22;5987;53.140;8.904;2023-06-26T00:07:28;22.20;99.90
11855;DHT22;5987;53.140;8.904;2023-06-26T00:10:33;22.20;99.90
11855;DHT22;5987;53.140;8.904;2023-06-26T00:13:39;22.20;99.90
11855;DHT22;5987;53.140;8.904;2023-06-26T00:16:43;22.10;99.90
11855;DHT22;5987;53.140;8.904;2023-06-26T00:19:47;22.10;99.90
11855;DHT22;5987;53.140;8.904;2023-06-26T00:22:51;22.10;99.90
11855;DHT22;5987;53.140;8.904;2023-06-26T00:25:55;22.00;99.90
11855;DHT22;5987;53.140;8.904;2023-06-26T00:29:01;22.00;99.90
11855;DHT22;5987;53.140;8.904;2023-06-26T00:32:05;22.00;99.90
11855;DHT22;5987;53.140;8.904;2023-06-26T00:35:10;21.90;99.90
11855;DHT22;5987;53.140;8.904;2023-06-26T00:38:13;21.90;99.90
11855;DHT22;5987;53.140;8.904;2023-06-26T00:41:18;21.80;99.90
11855;DHT22;5987;53.140;8.904;2023-06-26T00:44:23;21.80;99.90
11855;DHT22;5987;53.140;8.904;2023-06-26T00:47:27;21.80;99.90
11855;DHT22;5987;53.140;8.904;2023-06-26T00:50:31;21.80;99.90
11855;DHT22;5987;53.140;8.904;2023-06-26T00:53:35;21.70;99.90
11855;DHT22;5987;53.140;8.904;2023-06-26T00:56:40;21.60;99.90
11855;DHT22;5987;53.140;8.904;2023-06-26T00:59:45;21.50;99.90
11855;DHT22;5987;53.140;8.904;2023-06-26T01:02:50;21.50;99.90
11855;DHT22;5987;53.140;8.904;2023-06-26T01:05:54;21.50;99.90
11855;DHT22;5987;53.140;8.904;2023-06-26T01:09:01;21.40;99.90
11855;DHT22;5987;53.140;8.904;2023-06-26T01:12:06;21.40;99.90
11855;DHT22;5987;53.140;8.904;2023-06-26T01:15:12;21.40;99.90
11855;DHT22;5987;53.140;8.904;2023-06-26T01:18:15;21.40;99.90
11855;DHT22;5987;53.140;8.904;2023-06-26T01:21:19;21.40;99.90
11855;DHT22;5987;53.140;8.904;2023-06-26T01:24:25;21.30;99.90
11855;DHT22;5987;53.140;8.904;2023-06-26T01:27:40;21.30;99.90
11855;DHT22;5987;53.140;8.904;2023-06-26T01:30:46;21.30;99.90
11855;DHT22;5987;53.140;8.904;2023-06-26T01:33:51;21.30;99.90
11855;DHT22;5987;53.140;8.904;2023-06-26T01:36:56;21.30;99.90
11855;DHT22;5987;53.140;8.904;2023-06-26T01:40:00;21.20;99.90
11855;DHT22;5987;53.140;8.904;2023-06-26T01:43:14;21.10;99.90
11855;DHT22;5987;53.140;8.904;2023-06-26T01:46:24;21.00;99.90
11855;DHT22;5987;53.140;8.904;2023-06-26T01:49:42;20.80;99.90
11855;DHT22;5987;53.140;8.904;2023-06-26T01:52:57;20.80;99.90
11855;DHT22;5987;53.140;8.904;2023-06-26T01:56:13;20.90;99.90
11855;DHT22;5987;53.140;8.904;2023-06-26T01:59:21;20.90;99.90
11855;DHT22;5987;53.140;8.904;2023-06-26T02:02:25;21.00;99.90
11855;DHT22;5987;53.140;8.904;2023-06-26T02:05:31;21.00;99.90
11855;DHT22;5987;53.140;8.904;2023-06-26T02:08:36;20.90;99.90
11855;DHT22;5987;53.140;8.904;2023-06-26T02:11:39;20.90;99.90
11855;DHT22;5987;53.140;8.904;2023-06-26T02:14:45;20.80;99.90
11855;DHT22;5987;53.140;8.904;2023-06-26T02:17:48;20.80;99.90
11855;DHT22;5987;53.140;8.904;2023-06-26T02:20:52;20.80;99.90
11855;DHT22;5987;53.140;8.904;2023-06-26T02:23:56;20.80;99.90
11855;DHT22;5987;53.140;8.904;2023-06-26T02:27:00;20.60;99.90
11855;DHT22;5987;53.140;8.904;2023-06-26T02:30:07;20.60;99.90
11855;DHT22;5987;53.140;8.904;2023-06-26T02:33:12;20.70;99.90
11855;DHT22;5987;53.140;8.904;2023-06-26T02:36:15;20.60;99.90
11855;DHT22;5987;53.140;8.904;2023-06-26T02:39:19;20.60;99.90
11855;DHT22;5987;53.140;8.904;2023-06-26T02:42:23;20.60;99.90
11855;DHT22;5987;53.140;8.904;2023-06-26T02:45:28;20.70;99.90
11855;DHT22;5987;53.140;8.904;2023-06-26T02:48:32;20.60;99.90
11855;DHT22;5987;53.140;8.904;2023-06-26T02:51:36;20.60;99.90
11855;DHT22;5987;53.140;8.904;2023-06-26T02:54:40;20.60;99.90
11855;DHT22;5987;53.140;8.904;2023-06-26T02:57:44;20.50;99.90
11855;DHT22;5987;53.140;8.904;2023-06-26T03:00:49;20.50;99.90
11855;DHT22;5987;53.140;8.904;2023-06-26T03:03:54;20.40;99.90
11855;DHT22;5987;53.140;8.904;2023-06-26T03:06:58;20.50;99.90
11855;DHT22;5987;53.140;8.904;2023-06-26T03:10:02;20.50;99.90
11855;DHT22;5987;53.140;8.904;2023-06-26T03:13:05;20.30;99.90
11855;DHT22;5987;53.140;8.904;2023-06-26T03:16:11;20.30;99.90
11855;DHT22;5987;53.140;8.904;2023-06-26T03:19:14;20.30;99.90
11855;DHT22;5987;53.140;8.904;2023-06-26T03:22:18;20.40;99.90
11855;DHT22;5987;53.140;8.904;2023-06-26T03:25:22;20.60;99.90
11855;DHT22;5987;53.140;8.904;2023-06-26T03:28:27;20.60;99.90
11855;DHT22;5987;53.140;8.904;2023-06-26T03:31:32;20.40;99.90
11855;DHT22;5987;53.140;8.904;2023-06-26T03:34:37;20.50;99.90
11855;DHT22;5987;53.140;8.904;2023-06-26T03:37:41;20.50;99.90
11855;DHT22;5987;53.140;8.904;2023-06-26T03:40:45;20.50;99.90
11855;DHT22;5987;53.140;8.904;2023-06-26T03:43:49;20.50;99.90
11855;DHT22;5987;53.140;8.904;2023-06-26T03:46:54;20.30;99.90
11855;DHT22;5987;53.140;8.904;2023-06-26T03:49:58;20.40;99.90
11855;DHT22;5987;53.140;8.904;2023-06-26T03:53:01;20.60;99.90
11855;DHT22;5987;53.140;8.904;2023-06-26T03:56:05;21.00;99.90
11855;DHT22;5987;53.140;8.904;2023-06-26T03:59:10;21.20;99.90
11855;DHT22;5987;53.140;8.904;2023-06-26T04:02:15;21.50;99.90
11855;DHT22;5987;53.140;8.904;2023-06-26T04:05:19;21.90;99.90
11855;DHT22;5987;53.140;8.904;2023-06-26T04:08:24;22.00;99.90
11855;DHT22;5987;53.140;8.904;2023-06-26T04:11:29;21.50;99.90
11855;DHT22;5987;53.140;8.904;2023-06-26T04:14:33;21.30;99.90
11855;DHT22;5987;53.140;8.904;2023-06-26T04:17:38;21.30;99.90
11855;DHT22;5987;53.140;8.904;2023-06-26T04:21:06;21.60;99.90
11855;DHT22;5987;53.140;8.904;2023-06-26T04:24:10;21.90;99.90
11855;DHT22;5987;53.140;8.904;2023-06-26T04:27:16;22.10;99.90
11855;DHT22;5987;53.140;8.904;2023-06-26T04:30:21;22.40;99.90
11855;DHT22;5987;53.140;8.904;2023-06-26T04:33:26;22.40;99.90
11855;DHT22;5987;53.140;8.904;2023-06-26T04:36:30;22.60;99.90
11855;DHT22;5987;53.140;8.904;2023-06-26T04:39:35;22.60;99.90
11855;DHT22;5987;53.140;8.904;2023-06-26T04:42:40;23.00;99.90
11855;DHT22;5987;53.140;8.904;2023-06-26T04:45:44;23.20;99.90
11855;DHT22;5987;53.140;8.904;2023-06-26T04:48:49;23.30;99.90
11855;DHT22;5987;53.140;8.904;2023-06-26T04:51:53;23.00;99.90
11855;DHT22;5987;53.140;8.904;2023-06-26T04:54:57;23.10;99.90
11855;DHT22;5987;53.140;8.904;2023-06-26T04:58:01;23.00;99.90
11855;DHT22;5987;53.140;8.904;2023-06-26T05:01:05;23.10;99.90
11855;DHT22;5987;53.140;8.904;2023-06-26T05:04:11;23.20;99.90
11855;DHT22;5987;53.140;8.904;2023-06-26T05:07:15;23.20;99.90
11855;DHT22;5987;53.140;8.904;2023-06-26T05:10:20;23.40;99.90
11855;DHT22;5987;53.140;8.904;2023-06-26T05:13:23;23.50;99.90
11855;DHT22;5987;53.140;8.904;2023-06-26T05:16:28;23.50;99.90
11855;DHT22;5987;53.140;8.904;2023-06-26T05:19:33;23.90;99.90
11855;DHT22;5987;53.140;8.904;2023-06-26T05:22:37;23.80;99.90
11855;DHT22;5987;53.140;8.904;2023-06-26T05:25:43;23.80;99.90
11855;DHT22;5987;53.140;8.904;2023-06-26T05:28:47;24.40;99.90
11855;DHT22;5987;53.140;8.904;2023-06-26T05:31:53;24.30;99.90
11855;DHT22;5987;53.140;8.904;2023-06-26T05:35:02;24.70;99.90
11855;DHT22;5987;53.140;8.904;2023-06-26T05:38:07;24.70;99.90
11855;DHT22;5987;53.140;8.904;2023-06-26T05:41:12;24.80;99.90
11855;DHT22;5987;53.140;8.904;2023-06-26T05:44:16;24.90;99.90
11855;DHT22;5987;53.140;8.904;2023-06-26T05:47:20;24.90;99.90
11855;DHT22;5987;53.140;8.904;2023-06-26T05:50:26;25.00;99.90
11855;DHT22;5987;53.140;8.904;2023-06-26T05:53:31;25.40;99.90
11855;DHT22;5987;53.140;8.904;2023-06-26T05:56:36;25.50;99.90
11855;DHT22;5987;53.140;8.904;2023-06-26T05:59:43;26.00;99.90
11855;DHT22;5987;53.140;8.904;2023-06-26T06:02:48;25.90;99.90
11855;DHT22;5987;53.140;8.904;2023-06-26T06:05:58;26.00;99.90
11855;DHT22;5987;53.140;8.904;2023-06-26T06:09:01;25.70;99.90
11855;DHT22;5987;53.140;8.904;2023-06-26T06:12:06;26.00;99.90
11855;DHT22;5987;53.140;8.904;2023-06-26T06:15:10;26.10;99.90
11855;DHT22;5987;53.140;8.904;2023-06-26T06:18:14;26.50;99.90
11855;DHT22;5987;53.140;8.904;2023-06-26T06:21:19;26.40;99.90
11855;DHT22;5987;53.140;8.904;2023-06-26T06:24:23;26.50;99.90
11855;DHT22;5987;53.140;8.904;2023-06-26T06:27:27;26.70;99.90
11855;DHT22;5987;53.140;8.904;2023-06-26T06:30:34;26.70;99.90
11855;DHT22;5987;53.140;8.904;2023-06-26T06:33:42;27.20;99.90
11855;DHT22;5987;53.140;8.904;2023-06-26T06:36:47;27.20;99.90
11855;DHT22;5987;53.140;8.904;2023-06-26T06:39:52;27.50;99.90
11855;DHT22;5987;53.140;8.904;2023-06-26T06:42:56;27.90;99.90
11855;DHT22;5987;53.140;8.904;2023-06-26T06:45:59;28.00;99.90
11855;DHT22;5987;53.140;8.904;2023-06-26T06:49:03;28.20;99.90
11855;DHT22;5987;53.140;8.904;2023-06-26T06:52:09;28.40;99.90
11855;DHT22;5987;53.140;8.904;2023-06-26T06:55:12;28.30;99.90
11855;DHT22;5987;53.140;8.904;2023-06-26T06:58:18;28.30;99.90
11855;DHT22;5987;53.140;8.904;2023-06-26T07:01:22;28.00;99.90
11855;DHT22;5987;53.140;8.904;2023-06-26T07:04:25;28.00;99.90
11855;DHT22;5987;53.140;8.904;2023-06-26T07:07:32;28.20;99.90
11855;DHT22;5987;53.140;8.904;2023-06-26T07:10:37;28.30;99.90
11855;DHT22;5987;53.140;8.904;2023-06-26T07:13:42;28.30;99.90
11855;DHT22;5987;53.140;8.904;2023-06-26T07:16:47;28.30;99.90
11855;DHT22;5987;53.140;8.904;2023-06-26T07:19:51;28.40;99.90
11855;DHT22;5987;53.140;8.904;2023-06-26T07:22:56;28.20;99.90
11855;DHT22;5987;53.140;8.904;2023-06-26T07:26:00;28.40;99.90
11855;DHT22;5987;53.140;8.904;2023-06-26T07:29:04;28.30;99.90
11855;DHT22;5987;53.140;8.904;2023-06-26T07:32:08;28.40;99.90
11855;DHT22;5987;53.140;8.904;2023-06-26T07:35:17;28.60;99.90
11855;DHT22;5987;53.140;8.904;2023-06-26T07:38:23;28.70;99.90
11855;DHT22;5987;53.140;8.904;2023-06-26T07:41:27;28.40;99.90
11855;DHT22;5987;53.140;8.904;2023-06-26T07:44:33;28.40;99.90
11855;DHT22;5987;53.140;8.904;2023-06-26T07:47:37;28.30;99.90
11855;DHT22;5987;53.140;8.904;2023-06-26T07:50:41;28.30;99.60
11855;DHT22;5987;53.140;8.904;2023-06-26T07:53:47;28.20;99.90
11855;DHT22;5987;53.140;8.904;2023-06-26T07:56:55;28.40;99.70
11855;DHT22;5987;53.140;8.904;2023-06-26T08:00:00;28.70;99.00
11855;DHT22;5987;53.140;8.904;2023-06-26T08:03:04;28.90;98.10
11855;DHT22;5987;53.140;8.904;2023-06-26T08:06:13;28.80;99.00
11855;DHT22;5987;53.140;8.904;2023-06-26T08:09:20;29.20;99.20
11855;DHT22;5987;53.140;8.904;2023-06-26T08:12:25;29.10;97.90
11855;DHT22;5987;53.140;8.904;2023-06-26T08:15:33;28.60;98.90
11855;DHT22;5987;53.140;8.904;2023-06-26T08:18:37;27.80;99.90
11855;DHT22;5987;53.140;8.904;2023-06-26T08:21:42;27.20;99.90
11855;DHT22;5987;53.140;8.904;2023-06-26T08:24:48;26.60;99.90
11855;DHT22;5987;53.140;8.904;2023-06-26T08:27:51;26.30;99.90
11855;DHT22;5987;53.140;8.904;2023-06-26T08:30:56;26.50;99.90
11855;DHT22;5987;53.140;8.904;2023-06-26T08:34:00;26.80;99.90
11855;DHT22;5987;53.140;8.904;2023-06-26T08:37:04;26.90;99.90
11855;DHT22;5987;53.140;8.904;2023-06-26T08:40:13;26.50;99.90
11855;DHT22;5987;53.140;8.904;2023-06-26T08:43:20;25.90;99.90
11855;DHT22;5987;53.140;8.904;2023-06-26T08:46:25;25.40;99.90
11855;DHT22;5987;53.140;8.904;2023-06-26T08:49:37;24.80;99.90
11855;DHT22;5987;53.140;8.904;2023-06-26T08:52:50;24.10;99.90
11855;DHT22;5987;53.140;8.904;2023-06-26T08:55:59;23.50;99.90
11855;DHT22;5987;53.140;8.904;2023-06-26T08:59:06;22.60;99.90
11855;DHT22;5987;53.140;8.904;2023-06-26T09:02:12;22.10;99.90
11855;DHT22;5987;53.140;8.904;2023-06-26T09:05:17;21.80;99.90
11855;DHT22;5987;53.140;8.904;2023-06-26T09:08:21;21.50;99.90
11855;DHT22;5987;53.140;8.904;2023-06-26T09:11:26;21.40;99.90
11855;DHT22;5987;53.140;8.904;2023-06-26T09:14:30;21.40;99.90
11855;DHT22;5987;53.140;8.904;2023-06-26T09:17:39;21.50;99.90
11855;DHT22;5987;53.140;8.904;2023-06-26T09:20:44;21.70;99.90
11855;DHT22;5987;53.140;8.904;2023-06-26T09:23:48;21.90;99.90
11855;DHT22;5987;53.140;8.904;2023-06-26T09:26:54;22.10;99.90
11855;DHT22;5987;53.140;8.904;2023-06-26T09:29:58;22.20;99.90
11855;DHT22;5987;53.140;8.904;2023-06-26T09:33:14;22.20;99.90
11855;DHT22;5987;53.140;8.904;2023-06-26T09:36:19;22.40;99.90
11855;DHT22;5987;53.140;8.904;2023-06-26T09:39:24;22.60;99.90
11855;DHT22;5987;53.140;8.904;2023-06-26T09:42:30;22.90;99.90
11855;DHT22;5987;53.140;8.904;2023-06-26T09:45:34;23.30;99.90
11855;DHT22;5987;53.140;8.904;2023-06-26T09:48:39;23.30;99.90
11855;DHT22;5987;53.140;8.904;2023-06-26T09:51:43;23.40;99.90
11855;DHT22;5987;53.140;8.904;2023-06-26T09:54:47;23.90;99.90
11855;DHT22;5987;53.140;8.904;2023-06-26T09:57:57;24.10;99.90
11855;DHT22;5987;53.140;8.904;2023-06-26T10:01:05;24.10;99.90
11855;DHT22;5987;53.140;8.904;2023-06-26T10:04:11;23.70;99.90
11855;DHT22;5987;53.140;8.904;2023-06-26T10:07:16;23.90;99.90
11855;DHT22;5987;53.140;8.904;2023-06-26T10:10:23;24.10;99.90
11855;DHT22;5987;53.140;8.904;2023-06-26T10:13:31;24.10;99.90
11855;DHT22;5987;53.140;8.904;2023-06-26T10:16:42;24.20;99.90
11855;DHT22;5987;53.140;8.904;2023-06-26T10:19:48;24.10;99.90
11855;DHT22;5987;53.140;8.904;2023-06-26T10:22:55;24.10;99.90
11855;DHT22;5987;53.140;8.904;2023-06-26T10:26:03;24.10;99.90
11855;DHT22;5987;53.140;8.904;2023-06-26T10:29:13;23.80;99.90
11855;DHT22;5987;53.140;8.904;2023-06-26T10:32:22;23.80;99.90
11855;DHT22;5987;53.140;8.904;2023-06-26T10:35:30;23.80;99.90
11855;DHT22;5987;53.140;8.904;2023-06-26T10:38:49;24.00;99.90
11855;DHT22;5987;53.140;8.904;2023-06-26T10:41:55;23.80;99.90
11855;DHT22;5987;53.140;8.904;2023-06-26T10:45:17;23.70;99.90
11855;DHT22;5987;53.140;8.904;2023-06-26T10:48:22;23.60;99.90
11855;DHT22;5987;53.140;8.904;2023-06-26T10:51:32;23.40;99.90
11855;DHT22;5987;53.140;8.904;2023-06-26T10:54:38;23.40;99.90
11855;DHT22;5987;53.140;8.904;2023-06-26T10:57:46;23.40;99.90
11855;DHT22;5987;53.140;8.904;2023-06-26T11:00:52;23.70;99.90
11855;DHT22;5987;53.140;8.904;2023-06-26T11:04:38;23.90;99.90
11855;DHT22;5987;53.140;8.904;2023-06-26T11:08:03;24.10;99.90
11855;DHT22;5987;53.140;8.904;2023-06-26T11:11:07;24.30;99.90
11855;DHT22;5987;53.140;8.904;2023-06-26T11:14:11;24.20;99.90
11855;DHT22;5987;53.140;8.904;2023-06-26T11:17:19;24.20;99.90
11855;DHT22;5987;53.140;8.904;2023-06-26T11:20:23;24.10;99.90
11855;DHT22;5987;53.140;8.904;2023-06-26T11:23:26;24.20;99.90
11855;DHT22;5987;53.140;8.904;2023-06-26T11:26:31;24.50;99.90
11855;DHT22;5987;53.140;8.904;2023-06-26T11:29:47;24.30;99.90
11855;DHT22;5987;53.140;8.904;2023-06-26T11:33:01;24.20;99.90
11855;DHT22;5987;53.140;8.904;2023-06-26T11:36:09;24.40;99.90
11855;DHT22;5987;53.140;8.904;2023-06-26T11:39:13;24.50;99.90
11855;DHT22;5987;53.140;8.904;2023-06-26T11:42:17;24.10;99.90
11855;DHT22;5987;53.140;8.904;2023-06-26T11:45:32;24.00;99.90
11855;DHT22;5987;53.140;8.904;2023-06-26T11:48:37;24.10;99.90
11855;DHT22;5987;53.140;8.904;2023-06-26T11:51:45;24.40;99.90
11855;DHT22;5987;53.140;8.904;2023-06-26T11:54:50;24.50;99.90
11855;DHT22;5987;53.140;8.904;2023-06-26T11:57:55;24.40;99.90
11855;DHT22;5987;53.140;8.904;2023-06-26T12:01:01;24.40;99.90
11855;DHT22;5987;53.140;8.904;2023-06-26T12:04:09;24.40;99.90
11855;DHT22;5987;53.140;8.904;2023-06-26T12:07:19;24.60;99.90
11855;DHT22;5987;53.140;8.904;2023-06-26T12:10:26;24.70;99.90
11855;DHT22;5987;53.140;8.904;2023-06-26T12:13:32;24.70;99.90
11855;DHT22;5987;53.140;8.904;2023-06-26T12:16:38;24.60;99.90
11855;DHT22;5987;53.140;8.904;2023-06-26T12:19:45;24.60;99.90
11855;DHT22;5987;53.140;8.904;2023-06-26T12:22:51;24.50;99.90
11855;DHT22;5987;53.140;8.904;2023-06-26T12:25:55;24.60;99.90
11855;DHT22;5987;53.140;8.904;2023-06-26T12:29:02;24.60;99.90
11855;DHT22;5987;53.140;8.904;2023-06-26T12:32:09;24.70;99.90
11855;DHT22;5987;53.140;8.904;2023-06-26T12:35:15;24.90;99.90
11855;DHT22;5987;53.140;8.904;2023-06-26T12:38:19;24.80;99.90
11855;DHT22;5987;53.140;8.904;2023-06-26T12:41:24;24.40;99.90
11855;DHT22;5987;53.140;8.904;2023-06-26T12:44:29;24.30;99.90
11855;DHT22;5987;53.140;8.904;2023-06-26T12:47:35;24.20;99.90
11855;DHT22;5987;53.140;8.904;2023-06-26T12:50:45;24.50;99.90
11855;DHT22;5987;53.140;8.904;2023-06-26T12:53:50;24.60;99.90
11855;DHT22;5987;53.140;8.904;2023-06-26T12:56:54;24.50;99.90
11855;DHT22;5987;53.140;8.904;2023-06-26T12:59:58;24.30;99.90
11855;DHT22;5987;53.140;8.904;2023-06-26T13:03:04;24.30;99.90
11855;DHT22;5987;53.140;8.904;2023-06-26T13:06:13;24.10;99.90
11855;DHT22;5987;53.140;8.904;2023-06-26T13:09:17;24.10;99.90
11855;DHT22;5987;53.140;8.904;2023-06-26T13:12:21;24.30;99.90
11855;DHT22;5987;53.140;8.904;2023-06-26T13:15:25;24.50;99.60
11855;DHT22;5987;53.140;8.904;2023-06-26T13:18:29;24.60;99.70
11855;DHT22;5987;53.140;8.904;2023-06-26T13:21:34;24.80;98.80
11855;DHT22;5987;53.140;8.904;2023-06-26T13:24:39;24.90;99.00
11855;DHT22;5987;53.140;8.904;2023-06-26T13:27:43;25.10;99.90
11855;DHT22;5987;53.140;8.904;2023-06-26T13:30:47;25.10;97.80
11855;DHT22;5987;53.140;8.904;2023-06-26T13:33:51;24.80;98.40
11855;DHT22;5987;53.140;8.904;2023-06-26T13:36:57;24.60;98.90
11855;DHT22;5987;53.140;8.904;2023-06-26T13:40:03;24.30;99.20
11855;DHT22;5987;53.140;8.904;2023-06-26T13:43:11;24.30;99.50
11855;DHT22;5987;53.140;8.904;2023-06-26T13:46:18;24.40;99.40
11855;DHT22;5987;53.140;8.904;2023-06-26T13:49:22;24.40;98.80
11855;DHT22;5987;53.140;8.904;2023-06-26T13:52:27;24.40;99.70
11855;DHT22;5987;53.140;8.904;2023-06-26T13:55:31;24.70;98.80
11855;DHT22;5987;53.140;8.904;2023-06-26T13:58:36;24.80;98.00
11855;DHT22;5987;53.140;8.904;2023-06-26T14:01:40;25.00;97.30
11855;DHT22;5987;53.140;8.904;2023-06-26T14:04:46;24.50;95.70
11855;DHT22;5987;53.140;8.904;2023-06-26T14:07:51;24.10;96.50
11855;DHT22;5987;53.140;8.904;2023-06-26T14:10:58;23.90;96.60
11855;DHT22;5987;53.140;8.904;2023-06-26T14:14:03;23.90;97.10
11855;DHT22;5987;53.140;8.904;2023-06-26T14:17:07;23.90;97.00
11855;DHT22;5987;53.140;8.904;2023-06-26T14:20:12;23.80;95.90
11855;DHT22;5987;53.140;8.904;2023-06-26T14:23:18;23.80;96.50
11855;DHT22;5987;53.140;8.904;2023-06-26T14:26:22;24.00;96.70
11855;DHT22;5987;53.140;8.904;2023-06-26T14:29:25;23.90;96.70
11855;DHT22;5987;53.140;8.904;2023-06-26T14:32:29;23.80;97.10
11855;DHT22;5987;53.140;8.904;2023-06-26T14:35:33;23.60;97.10
11855;DHT22;5987;53.140;8.904;2023-06-26T14:38:39;23.30;96.90
11855;DHT22;5987;53.140;8.904;2023-06-26T14:41:43;23.20;97.70
11855;DHT22;5987;53.140;8.904;2023-06-26T14:44:49;23.00;98.00
11855;DHT22;5987;53.140;8.904;2023-06-26T14:47:54;23.00;97.70
11855;DHT22;5987;53.140;8.904;2023-06-26T14:50:58;23.00;98.40
11855;DHT22;5987;53.140;8.904;2023-06-26T14:54:04;23.10;98.40
11855;DHT22;5987;53.140;8.904;2023-06-26T14:57:08;23.10;98.50
11855;DHT22;5987;53.140;8.904;2023-06-26T15:00:14;23.10;97.50
11855;DHT22;5987;53.140;8.904;2023-06-26T15:03:19;23.20;97.70
11855;DHT22;5987;53.140;8.904;2023-06-26T15:06:23;23.40;97.70
11855;DHT22;5987;53.140;8.904;2023-06-26T15:09:28;23.60;97.40
11855;DHT22;5987;53.140;8.904;2023-06-26T15:12:34;23.50;97.30
11855;DHT22;5987;53.140;8.904;2023-06-26T15:15:49;23.40;98.20
11855;DHT22;5987;53.140;8.904;2023-06-26T15:18:53;23.10;98.10
11855;DHT22;5987;53.140;8.904;2023-06-26T15:21:57;22.80;97.80
11855;DHT22;5987;53.140;8.904;2023-06-26T15:25:03;22.70;98.20
11855;DHT22;5987;53.140;8.904;2023-06-26T15:28:07;22.60;98.50
11855;DHT22;5987;53.140;8.904;2023-06-26T15:31:13;22.60;98.90
11855;DHT22;5987;53.140;8.904;2023-06-26T15:34:17;22.50;98.90
11855;DHT22;5987;53.140;8.904;2023-06-26T15:37:20;22.40;98.50
11855;DHT22;5987;53.140;8.904;2023-06-26T15:40:25;22.50;98.00
11855;DHT22;5987;53.140;8.904;2023-06-26T15:43:30;22.40;97.70
11855;DHT22;5987;53.140;8.904;2023-06-26T15:46:34;22.30;97.10
11855;DHT22;5987;53.140;8.904;2023-06-26T15:49:38;22.20;96.70
11855;DHT22;5987;53.140;8.904;2023-06-26T15:52:42;22.20;96.70
11855;DHT22;5987;53.140;8.904;2023-06-26T15:55:47;22.50;97.30
11855;DHT22;5987;53.140;8.904;2023-06-26T15:58:51;22.60;96.70
11855;DHT22;5987;53.140;8.904;2023-06-26T16:01:55;22.50;95.60
11855;DHT22;5987;53.140;8.904;2023-06-26T16:04:59;22.30;95.20
11855;DHT22;5987;53.140;8.904;2023-06-26T16:08:03;22.50;95.60
11855;DHT22;5987;53.140;8.904;2023-06-26T16:11:09;22.30;95.00
11855;DHT22;5987;53.140;8.904;2023-06-26T16:14:14;22.30;93.80
11855;DHT22;5987;53.140;8.904;2023-06-26T16:17:17;22.30;93.50
11855;DHT22;5987;53.140;8.904;2023-06-26T16:20:21;22.40;94.60
11855;DHT22;5987;53.140;8.904;2023-06-26T16:23:25;22.70;94.70
11855;DHT22;5987;53.140;8.904;2023-06-26T16:26:31;22.80;95.20
11855;DHT22;5987;53.140;8.904;2023-06-26T16:29:35;22.70;93.90
11855;DHT22;5987;53.140;8.904;2023-06-26T16:32:38;22.90;94.70
11855;DHT22;5987;53.140;8.904;2023-06-26T16:35:42;22.90;95.10
11855;DHT22;5987;53.140;8.904;2023-06-26T16:38:46;22.70;95.30
11855;DHT22;5987;53.140;8.904;2023-06-26T16:41:52;22.60;95.30
11855;DHT22;5987;53.140;8.904;2023-06-26T16:44:57;22.30;95.90
11855;DHT22;5987;53.140;8.904;2023-06-26T16:48:01;22.20;96.90
11855;DHT22;5987;53.140;8.904;2023-06-26T16:51:05;22.50;97.20
11855;DHT22;5987;53.140;8.904;2023-06-26T16:54:09;22.60;96.80
11855;DHT22;5987;53.140;8.904;2023-06-26T16:57:15;22.80;97.70
11855;DHT22;5987;53.140;8.904;2023-06-26T17:00:19;22.60;96.50
11855;DHT22;5987;53.140;8.904;2023-06-26T17:03:22;22.50;97.50
11855;DHT22;5987;53.140;8.904;2023-06-26T17:06:26;22.50;97.80
11855;DHT22;5987;53.140;8.904;2023-06-26T17:09:31;22.40;97.80
11855;DHT22;5987;53.140;8.904;2023-06-26T17:12:37;22.30;98.60
11855;DHT22;5987;53.140;8.904;2023-06-26T17:15:48;22.10;98.50
11855;DHT22;5987;53.140;8.904;2023-06-26T17:18:52;21.80;98.80
11855;DHT22;5987;53.140;8.904;2023-06-26T17:21:57;21.40;98.80
11855;DHT22;5987;53.140;8.904;2023-06-26T17:25:01;21.30;99.50
11855;DHT22;5987;53.140;8.904;2023-06-26T17:28:08;21.20;99.80
11855;DHT22;5987;53.140;8.904;2023-06-26T17:31:11;21.40;99.90
11855;DHT22;5987;53.140;8.904;2023-06-26T17:34:15;21.50;99.90
11855;DHT22;5987;53.140;8.904;2023-06-26T17:37:20;21.50;99.90
11855;DHT22;5987;53.140;8.904;2023-06-26T17:40:25;21.40;99.90
11855;DHT22;5987;53.140;8.904;2023-06-26T17:43:30;21.30;99.90
11855;DHT22;5987;53.140;8.904;2023-06-26T17:46:34;21.10;99.90
11855;DHT22;5987;53.140;8.904;2023-06-26T17:49:38;21.00;99.90
11855;DHT22;5987;53.140;8.904;2023-06-26T17:52:42;21.10;99.90
11855;DHT22;5987;53.140;8.904;2023-06-26T17:55:46;21.10;99.90
11855;DHT22;5987;53.140;8.904;2023-06-26T17:58:51;20.90;99.90
11855;DHT22;5987;53.140;8.904;2023-06-26T18:01:55;20.70;99.90
11855;DHT22;5987;53.140;8.904;2023-06-26T18:05:01;20.60;99.90
11855;DHT22;5987;53.140;8.904;2023-06-26T18:08:04;20.50;99.90
11855;DHT22;5987;53.140;8.904;2023-06-26T18:11:08;20.50;99.90
11855;DHT22;5987;53.140;8.904;2023-06-26T18:14:13;20.50;99.90
11855;DHT22;5987;53.140;8.904;2023-06-26T18:17:18;20.40;99.90
11855;DHT22;5987;53.140;8.904;2023-06-26T18:20:21;20.40;99.90
11855;DHT22;5987;53.140;8.904;2023-06-26T18:23:25;20.30;99.90
11855;DHT22;5987;53.140;8.904;2023-06-26T18:26:29;20.30;99.90
11855;DHT22;5987;53.140;8.904;2023-06-26T18:29:36;20.30;99.90
11855;DHT22;5987;53.140;8.904;2023-06-26T18:32:41;20.20;99.90
11855;DHT22;5987;53.140;8.904;2023-06-26T18:35:46;20.20;99.90
11855;DHT22;5987;53.140;8.904;2023-06-26T18:38:50;20.00;99.90
11855;DHT22;5987;53.140;8.904;2023-06-26T18:41:53;19.90;99.90
11855;DHT22;5987;53.140;8.904;2023-06-26T18:44:58;19.80;99.90
11855;DHT22;5987;53.140;8.904;2023-06-26T18:48:02;19.60;99.90
11855;DHT22;5987;53.140;8.904;2023-06-26T18:51:09;19.60;99.90
11855;DHT22;5987;53.140;8.904;2023-06-26T18:54:14;19.70;99.90
11855;DHT22;5987;53.140;8.904;2023-06-26T18:57:19;19.60;99.90
11855;DHT22;5987;53.140;8.904;2023-06-26T19:00:24;19.70;99.90
11855;DHT22;5987;53.140;8.904;2023-06-26T19:03:30;19.70;99.90
11855;DHT22;5987;53.140;8.904;2023-06-26T19:06:33;19.70;99.90
11855;DHT22;5987;53.140;8.904;2023-06-26T19:09:37;19.60;99.90
11855;DHT22;5987;53.140;8.904;2023-06-26T19:12:41;19.50;99.90
11855;DHT22;5987;53.140;8.904;2023-06-26T19:15:46;19.40;99.90
11855;DHT22;5987;53.140;8.904;2023-06-26T19:18:51;19.40;99.90
11855;DHT22;5987;53.140;8.904;2023-06-26T19:21:57;19.30;99.90
11855;DHT22;5987;53.140;8.904;2023-06-26T19:25:01;19.30;99.90
11855;DHT22;5987;53.140;8.904;2023-06-26T19:28:05;19.20;99.90
11855;DHT22;5987;53.140;8.904;2023-06-26T19:31:10;19.20;99.90
11855;DHT22;5987;53.140;8.904;2023-06-26T19:34:14;19.20;99.90
11855;DHT22;5987;53.140;8.904;2023-06-26T19:37:18;19.10;99.90
11855;DHT22;5987;53.140;8.904;2023-06-26T19:40:21;19.00;99.90
11855;DHT22;5987;53.140;8.904;2023-06-26T19:43:25;18.90;99.90
11855;DHT22;5987;53.140;8.904;2023-06-26T19:46:30;18.70;99.90
11855;DHT22;5987;53.140;8.904;2023-06-26T19:49:34;18.70;99.90